sensor_id;sensor_type;location;lat;lon;timestamp;P1;durP1;ratioP1;P2;durP2;ratioP2
67076;SDS011;53991;46.364;17.008;2022-07-23T00:00:03;9.20;;;7.00;;
67076;SDS011;53991;46.364;17.008;2022-07-23T00:03:06;7.18;;;6.57;;
67076;SDS011;53991;46.364;17.008;2022-07-23T00:06:08;8.38;;;7.57;;
67076;SDS011;53991;46.364;17.008;2022-07-23T00:09:10;9.35;;;7.68;;
67076;SDS011;53991;46.364;17.008;2022-07-23T00:12:12;7.32;;;6.72;;
67076;SDS011;53991;46.364;17.008;2022-07-23T00:15:14;8.55;;;7.75;;
67076;SDS011;53991;46.364;17.008;2022-07-23T00:18:16;12.25;;;7.43;;
67076;SDS011;53991;46.364;17.008;2022-07-23T00:21:18;7.80;;;7.10;;
67076;SDS011;53991;46.364;17.008;2022-07-23T00:24:20;8.15;;;7.35;;
67076;SDS011;53991;46.364;17.008;2022-07-23T00:27:22;10.13;;;7.25;;
67076;SDS011;53991;46.364;17.008;2022-07-23T00:30:24;7.70;;;7.05;;
67076;SDS011;53991;46.364;17.008;2022-07-23T00:33:26;9.10;;;7.32;;
67076;SDS011;53991;46.364;17.008;2022-07-23T00:36:28;9.63;;;8.80;;
67076;SDS011;53991;46.364;17.008;2022-07-23T00:39:30;9.82;;;8.73;;
67076;SDS011;53991;46.364;17.008;2022-07-23T00:45:34;7.32;;;6.63;;
67076;SDS011;53991;46.364;17.008;2022-07-23T00:48:36;8.05;;;7.10;;
67076;SDS011;53991;46.364;17.008;2022-07-23T00:51:38;7.45;;;6.75;;
67076;SDS011;53991;46.364;17.008;2022-07-23T00:54:40;9.05;;;7.68;;
67076;SDS011;53991;46.364;17.008;2022-07-23T00:57:42;7.63;;;6.78;;
67076;SDS011;53991;46.364;17.008;2022-07-23T01:00:47;8.18;;;7.03;;
67076;SDS011;53991;46.364;17.008;2022-07-23T01:03:49;8.30;;;6.75;;
67076;SDS011;53991;46.364;17.008;2022-07-23T01:06:52;8.27;;;6.97;;
67076;SDS011;53991;46.364;17.008;2022-07-23T01:09:54;8.88;;;7.93;;
67076;SDS011;53991;46.364;17.008;2022-07-23T01:16:08;10.20;;;7.80;;
67076;SDS011;53991;46.364;17.008;2022-07-23T01:19:12;9.55;;;8.65;;
67076;SDS011;53991;46.364;17.008;2022-07-23T01:22:15;9.00;;;8.27;;
67076;SDS011;53991;46.364;17.008;2022-07-23T01:25:20;9.23;;;8.35;;
67076;SDS011;53991;46.364;17.008;2022-07-23T01:28:22;10.05;;;9.05;;
67076;SDS011;53991;46.364;17.008;2022-07-23T01:31:25;8.27;;;7.68;;
67076;SDS011;53991;46.364;17.008;2022-07-23T01:34:31;14.05;;;8.05;;
67076;SDS011;53991;46.364;17.008;2022-07-23T01:37:34;9.00;;;8.10;;
67076;SDS011;53991;46.364;17.008;2022-07-23T01:40:36;8.90;;;8.05;;
67076;SDS011;53991;46.364;17.008;2022-07-23T01:46:40;9.45;;;7.28;;
67076;SDS011;53991;46.364;17.008;2022-07-23T01:49:42;8.60;;;7.68;;
67076;SDS011;53991;46.364;17.008;2022-07-23T01:52:44;9.75;;;8.25;;
67076;SDS011;53991;46.364;17.008;2022-07-23T01:55:46;9.93;;;8.43;;
67076;SDS011;53991;46.364;17.008;2022-07-23T01:58:48;8.38;;;7.57;;
67076;SDS011;53991;46.364;17.008;2022-07-23T02:01:51;8.93;;;7.93;;
67076;SDS011;53991;46.364;17.008;2022-07-23T02:04:53;8.90;;;8.10;;
67076;SDS011;53991;46.364;17.008;2022-07-23T02:07:55;8.77;;;7.95;;
67076;SDS011;53991;46.364;17.008;2022-07-23T02:10:58;8.75;;;7.32;;
67076;SDS011;53991;46.364;17.008;2022-07-23T02:14:00;9.18;;;8.25;;
67076;SDS011;53991;46.364;17.008;2022-07-23T02:17:02;8.43;;;7.63;;
67076;SDS011;53991;46.364;17.008;2022-07-23T02:20:05;9.63;;;8.35;;
67076;SDS011;53991;46.364;17.008;2022-07-23T02:23:08;8.80;;;7.90;;
67076;SDS011;53991;46.364;17.008;2022-07-23T02:26:10;9.02;;;8.15;;
67076;SDS011;53991;46.364;17.008;2022-07-23T02:29:19;8.45;;;7.75;;
67076;SDS011;53991;46.364;17.008;2022-07-23T02:32:21;9.27;;;8.43;;
67076;SDS011;53991;46.364;17.008;2022-07-23T02:35:23;8.43;;;7.60;;
67076;SDS011;53991;46.364;17.008;2022-07-23T02:38:25;9.50;;;8.40;;
67076;SDS011;53991;46.364;17.008;2022-07-23T02:41:27;8.65;;;7.85;;
67076;SDS011;53991;46.364;17.008;2022-07-23T02:44:29;8.35;;;7.63;;
67076;SDS011;53991;46.364;17.008;2022-07-23T02:47:31;9.63;;;7.05;;
67076;SDS011;53991;46.364;17.008;2022-07-23T02:50:33;8.43;;;7.45;;
67076;SDS011;53991;46.364;17.008;2022-07-23T02:53:36;9.05;;;8.00;;
67076;SDS011;53991;46.364;17.008;2022-07-23T02:56:38;8.45;;;7.68;;
67076;SDS011;53991;46.364;17.008;2022-07-23T02:59:40;8.90;;;8.10;;
67076;SDS011;53991;46.364;17.008;2022-07-23T03:02:42;8.13;;;7.38;;
67076;SDS011;53991;46.364;17.008;2022-07-23T03:05:44;7.82;;;7.20;;
67076;SDS011;53991;46.364;17.008;2022-07-23T03:08:46;9.60;;;8.10;;
67076;SDS011;53991;46.364;17.008;2022-07-23T03:11:48;11.75;;;8.95;;
67076;SDS011;53991;46.364;17.008;2022-07-23T03:14:50;9.63;;;8.75;;
67076;SDS011;53991;46.364;17.008;2022-07-23T03:17:52;12.70;;;8.68;;
67076;SDS011;53991;46.364;17.008;2022-07-23T03:20:54;13.40;;;9.48;;
67076;SDS011;53991;46.364;17.008;2022-07-23T03:23:55;11.95;;;9.27;;
67076;SDS011;53991;46.364;17.008;2022-07-23T03:26:57;9.77;;;8.50;;
67076;SDS011;53991;46.364;17.008;2022-07-23T03:29:59;12.93;;;8.60;;
67076;SDS011;53991;46.364;17.008;2022-07-23T03:33:01;11.48;;;10.32;;
67076;SDS011;53991;46.364;17.008;2022-07-23T03:36:03;11.32;;;10.32;;
67076;SDS011;53991;46.364;17.008;2022-07-23T03:39:10;16.88;;;9.82;;
67076;SDS011;53991;46.364;17.008;2022-07-23T03:42:14;11.77;;;10.68;;
67076;SDS011;53991;46.364;17.008;2022-07-23T03:45:16;11.35;;;10.35;;
67076;SDS011;53991;46.364;17.008;2022-07-23T03:48:18;16.27;;;9.52;;
67076;SDS011;53991;46.364;17.008;2022-07-23T03:51:20;11.10;;;8.90;;
67076;SDS011;53991;46.364;17.008;2022-07-23T03:54:22;10.15;;;9.05;;
67076;SDS011;53991;46.364;17.008;2022-07-23T03:57:24;10.75;;;8.18;;
67076;SDS011;53991;46.364;17.008;2022-07-23T04:00:26;11.50;;;9.35;;
67076;SDS011;53991;46.364;17.008;2022-07-23T04:03:28;8.55;;;7.72;;
67076;SDS011;53991;46.364;17.008;2022-07-23T04:06:30;9.25;;;8.18;;
67076;SDS011;53991;46.364;17.008;2022-07-23T04:09:32;9.95;;;8.93;;
67076;SDS011;53991;46.364;17.008;2022-07-23T04:12:34;11.38;;;10.15;;
67076;SDS011;53991;46.364;17.008;2022-07-23T04:15:36;9.82;;;8.30;;
67076;SDS011;53991;46.364;17.008;2022-07-23T04:18:38;8.52;;;7.25;;
67076;SDS011;53991;46.364;17.008;2022-07-23T04:21:40;9.05;;;8.20;;
67076;SDS011;53991;46.364;17.008;2022-07-23T04:24:42;9.40;;;8.50;;
67076;SDS011;53991;46.364;17.008;2022-07-23T04:27:44;8.10;;;7.18;;
67076;SDS011;53991;46.364;17.008;2022-07-23T04:30:46;10.55;;;7.72;;
67076;SDS011;53991;46.364;17.008;2022-07-23T04:33:48;10.10;;;7.53;;
67076;SDS011;53991;46.364;17.008;2022-07-23T04:36:50;13.35;;;7.75;;
67076;SDS011;53991;46.364;17.008;2022-07-23T04:39:53;10.15;;;7.35;;
67076;SDS011;53991;46.364;17.008;2022-07-23T04:42:55;8.73;;;7.15;;
67076;SDS011;53991;46.364;17.008;2022-07-23T04:45:57;7.70;;;7.00;;
67076;SDS011;53991;46.364;17.008;2022-07-23T04:48:59;8.48;;;7.50;;
67076;SDS011;53991;46.364;17.008;2022-07-23T04:52:02;6.90;;;6.20;;
67076;SDS011;53991;46.364;17.008;2022-07-23T04:55:04;8.90;;;6.30;;
67076;SDS011;53991;46.364;17.008;2022-07-23T05:01:08;5.38;;;4.88;;
67076;SDS011;53991;46.364;17.008;2022-07-23T05:04:10;6.47;;;4.88;;
67076;SDS011;53991;46.364;17.008;2022-07-23T05:07:12;7.03;;;4.72;;
67076;SDS011;53991;46.364;17.008;2022-07-23T05:10:14;10.68;;;5.78;;
67076;SDS011;53991;46.364;17.008;2022-07-23T05:13:16;7.07;;;5.90;;
67076;SDS011;53991;46.364;17.008;2022-07-23T05:16:19;4.90;;;4.45;;
67076;SDS011;53991;46.364;17.008;2022-07-23T05:19:21;8.10;;;5.68;;
67076;SDS011;53991;46.364;17.008;2022-07-23T05:22:25;7.15;;;5.15;;
67076;SDS011;53991;46.364;17.008;2022-07-23T05:25:27;8.98;;;5.10;;
67076;SDS011;53991;46.364;17.008;2022-07-23T05:28:29;11.80;;;5.38;;
67076;SDS011;53991;46.364;17.008;2022-07-23T05:31:31;6.57;;;4.80;;
67076;SDS011;53991;46.364;17.008;2022-07-23T05:34:33;5.40;;;5.00;;
67076;SDS011;53991;46.364;17.008;2022-07-23T05:37:35;7.38;;;5.43;;
67076;SDS011;53991;46.364;17.008;2022-07-23T05:40:38;10.40;;;5.18;;
67076;SDS011;53991;46.364;17.008;2022-07-23T05:43:40;12.25;;;5.13;;
67076;SDS011;53991;46.364;17.008;2022-07-23T05:46:42;7.55;;;5.55;;
67076;SDS011;53991;46.364;17.008;2022-07-23T05:49:44;7.22;;;5.95;;
67076;SDS011;53991;46.364;17.008;2022-07-23T05:52:46;6.15;;;5.65;;
67076;SDS011;53991;46.364;17.008;2022-07-23T05:55:48;7.05;;;6.47;;
67076;SDS011;53991;46.364;17.008;2022-07-23T05:58:50;5.95;;;5.22;;
67076;SDS011;53991;46.364;17.008;2022-07-23T06:01:52;6.82;;;5.68;;
67076;SDS011;53991;46.364;17.008;2022-07-23T06:04:54;9.60;;;6.05;;
67076;SDS011;53991;46.364;17.008;2022-07-23T06:07:56;6.72;;;5.50;;
67076;SDS011;53991;46.364;17.008;2022-07-23T06:10:58;6.97;;;5.85;;
67076;SDS011;53991;46.364;17.008;2022-07-23T06:14:00;9.80;;;5.70;;
67076;SDS011;53991;46.364;17.008;2022-07-23T06:20:04;11.07;;;5.38;;
67076;SDS011;53991;46.364;17.008;2022-07-23T06:23:07;5.97;;;5.47;;
67076;SDS011;53991;46.364;17.008;2022-07-23T06:26:09;9.18;;;5.75;;
67076;SDS011;53991;46.364;17.008;2022-07-23T06:32:13;5.78;;;5.18;;
67076;SDS011;53991;46.364;17.008;2022-07-23T06:35:15;5.82;;;4.85;;
67076;SDS011;53991;46.364;17.008;2022-07-23T06:38:19;8.73;;;5.18;;
67076;SDS011;53991;46.364;17.008;2022-07-23T06:41:21;6.93;;;4.70;;
67076;SDS011;53991;46.364;17.008;2022-07-23T06:44:23;5.15;;;4.65;;
67076;SDS011;53991;46.364;17.008;2022-07-23T06:47:25;7.50;;;5.00;;
67076;SDS011;53991;46.364;17.008;2022-07-23T06:50:27;6.63;;;6.00;;
67076;SDS011;53991;46.364;17.008;2022-07-23T06:53:29;6.80;;;4.97;;
67076;SDS011;53991;46.364;17.008;2022-07-23T06:56:31;10.30;;;4.93;;
67076;SDS011;53991;46.364;17.008;2022-07-23T06:59:33;7.13;;;4.80;;
67076;SDS011;53991;46.364;17.008;2022-07-23T07:02:35;7.97;;;4.68;;
67076;SDS011;53991;46.364;17.008;2022-07-23T07:05:37;7.45;;;4.18;;
67076;SDS011;53991;46.364;17.008;2022-07-23T07:08:39;5.70;;;4.90;;
67076;SDS011;53991;46.364;17.008;2022-07-23T07:11:41;5.47;;;4.88;;
67076;SDS011;53991;46.364;17.008;2022-07-23T07:14:43;6.55;;;5.10;;
67076;SDS011;53991;46.364;17.008;2022-07-23T07:17:45;7.80;;;4.90;;
67076;SDS011;53991;46.364;17.008;2022-07-23T07:20:48;5.13;;;4.72;;
67076;SDS011;53991;46.364;17.008;2022-07-23T07:23:51;6.65;;;4.72;;
67076;SDS011;53991;46.364;17.008;2022-07-23T07:26:53;6.47;;;4.85;;
67076;SDS011;53991;46.364;17.008;2022-07-23T07:29:55;7.10;;;4.97;;
67076;SDS011;53991;46.364;17.008;2022-07-23T07:32:57;5.10;;;4.60;;
67076;SDS011;53991;46.364;17.008;2022-07-23T07:35:59;6.63;;;4.88;;
67076;SDS011;53991;46.364;17.008;2022-07-23T07:39:01;7.25;;;4.88;;
67076;SDS011;53991;46.364;17.008;2022-07-23T07:42:03;9.30;;;4.85;;
67076;SDS011;53991;46.364;17.008;2022-07-23T07:45:07;8.05;;;4.80;;
67076;SDS011;53991;46.364;17.008;2022-07-23T07:48:09;8.73;;;4.63;;
67076;SDS011;53991;46.364;17.008;2022-07-23T07:51:11;9.60;;;4.78;;
67076;SDS011;53991;46.364;17.008;2022-07-23T07:54:13;8.13;;;4.40;;
67076;SDS011;53991;46.364;17.008;2022-07-23T07:57:15;6.05;;;4.70;;
67076;SDS011;53991;46.364;17.008;2022-07-23T08:00:18;6.40;;;4.55;;
67076;SDS011;53991;46.364;17.008;2022-07-23T08:03:20;5.97;;;4.78;;
67076;SDS011;53991;46.364;17.008;2022-07-23T08:06:22;8.20;;;4.80;;
67076;SDS011;53991;46.364;17.008;2022-07-23T08:09:24;5.95;;;4.72;;
67076;SDS011;53991;46.364;17.008;2022-07-23T08:12:26;7.10;;;4.75;;
67076;SDS011;53991;46.364;17.008;2022-07-23T08:15:29;6.35;;;5.22;;
67076;SDS011;53991;46.364;17.008;2022-07-23T08:18:31;7.22;;;5.18;;
67076;SDS011;53991;46.364;17.008;2022-07-23T08:21:33;6.00;;;5.07;;
67076;SDS011;53991;46.364;17.008;2022-07-23T08:24:35;10.65;;;5.45;;
67076;SDS011;53991;46.364;17.008;2022-07-23T08:27:37;7.00;;;5.57;;
67076;SDS011;53991;46.364;17.008;2022-07-23T08:30:40;5.75;;;5.20;;
67076;SDS011;53991;46.364;17.008;2022-07-23T08:33:43;8.80;;;5.47;;
67076;SDS011;53991;46.364;17.008;2022-07-23T08:36:45;7.32;;;5.28;;
67076;SDS011;53991;46.364;17.008;2022-07-23T08:39:47;5.85;;;4.85;;
67076;SDS011;53991;46.364;17.008;2022-07-23T08:42:49;7.45;;;5.53;;
67076;SDS011;53991;46.364;17.008;2022-07-23T08:45:53;5.70;;;5.20;;
67076;SDS011;53991;46.364;17.008;2022-07-23T08:48:56;7.40;;;5.28;;
67076;SDS011;53991;46.364;17.008;2022-07-23T08:51:59;10.50;;;5.50;;
67076;SDS011;53991;46.364;17.008;2022-07-23T08:55:01;6.03;;;5.40;;
67076;SDS011;53991;46.364;17.008;2022-07-23T08:58:04;8.25;;;6.45;;
67076;SDS011;53991;46.364;17.008;2022-07-23T09:01:07;9.65;;;6.25;;
67076;SDS011;53991;46.364;17.008;2022-07-23T09:04:09;7.43;;;6.68;;
67076;SDS011;53991;46.364;17.008;2022-07-23T09:07:11;15.07;;;7.10;;
67076;SDS011;53991;46.364;17.008;2022-07-23T09:10:13;12.57;;;8.77;;
67076;SDS011;53991;46.364;17.008;2022-07-23T09:16:30;13.25;;;8.48;;
67076;SDS011;53991;46.364;17.008;2022-07-23T09:19:32;11.32;;;10.13;;
67076;SDS011;53991;46.364;17.008;2022-07-23T09:22:35;13.30;;;9.90;;
67076;SDS011;53991;46.364;17.008;2022-07-23T09:25:37;8.93;;;7.97;;
67076;SDS011;53991;46.364;17.008;2022-07-23T09:28:47;12.75;;;11.60;;
67076;SDS011;53991;46.364;17.008;2022-07-23T09:31:59;13.88;;;12.32;;
67076;SDS011;53991;46.364;17.008;2022-07-23T09:35:03;11.88;;;10.68;;
67076;SDS011;53991;46.364;17.008;2022-07-23T09:38:05;28.67;;;20.83;;
67076;SDS011;53991;46.364;17.008;2022-07-23T09:41:07;19.30;;;15.48;;
67076;SDS011;53991;46.364;17.008;2022-07-23T09:44:11;15.02;;;12.80;;
67076;SDS011;53991;46.364;17.008;2022-07-23T09:47:18;15.77;;;14.15;;
67076;SDS011;53991;46.364;17.008;2022-07-23T09:50:21;18.30;;;16.70;;
67076;SDS011;53991;46.364;17.008;2022-07-23T09:53:27;18.65;;;16.95;;
67076;SDS011;53991;46.364;17.008;2022-07-23T09:56:31;19.13;;;17.40;;
67076;SDS011;53991;46.364;17.008;2022-07-23T09:59:37;24.88;;;22.55;;
67076;SDS011;53991;46.364;17.008;2022-07-23T10:02:40;24.73;;;22.40;;
67076;SDS011;53991;46.364;17.008;2022-07-23T10:05:42;29.45;;;26.73;;
67076;SDS011;53991;46.364;17.008;2022-07-23T10:08:44;44.00;;;40.30;;
67076;SDS011;53991;46.364;17.008;2022-07-23T10:11:49;48.53;;;44.33;;
67076;SDS011;53991;46.364;17.008;2022-07-23T10:14:52;42.90;;;38.80;;
67076;SDS011;53991;46.364;17.008;2022-07-23T10:17:55;33.85;;;30.90;;
67076;SDS011;53991;46.364;17.008;2022-07-23T10:20:57;38.10;;;34.65;;
67076;SDS011;53991;46.364;17.008;2022-07-23T10:37:17;43.70;;;39.83;;
67076;SDS011;53991;46.364;17.008;2022-07-23T10:40:33;40.13;;;36.60;;
67076;SDS011;53991;46.364;17.008;2022-07-23T10:43:35;38.53;;;35.33;;
67076;SDS011;53991;46.364;17.008;2022-07-23T10:47:20;43.22;;;37.42;;
67076;SDS011;53991;46.364;17.008;2022-07-23T10:53:19;37.60;;;34.20;;
67076;SDS011;53991;46.364;17.008;2022-07-23T10:57:07;37.40;;;34.28;;
67076;SDS011;53991;46.364;17.008;2022-07-23T11:03:04;34.15;;;31.45;;
67076;SDS011;53991;46.364;17.008;2022-07-23T11:09:50;32.05;;;29.15;;
67076;SDS011;53991;46.364;17.008;2022-07-23T11:12:52;29.00;;;26.60;;
67076;SDS011;53991;46.364;17.008;2022-07-23T11:19:04;32.20;;;29.27;;
67076;SDS011;53991;46.364;17.008;2022-07-23T11:22:07;33.08;;;30.10;;
67076;SDS011;53991;46.364;17.008;2022-07-23T11:25:09;33.15;;;30.42;;
67076;SDS011;53991;46.364;17.008;2022-07-23T11:28:16;36.47;;;33.28;;
67076;SDS011;53991;46.364;17.008;2022-07-23T11:31:19;36.25;;;33.35;;
67076;SDS011;53991;46.364;17.008;2022-07-23T11:37:37;35.35;;;32.55;;
67076;SDS011;53991;46.364;17.008;2022-07-23T11:40:40;36.40;;;33.35;;
67076;SDS011;53991;46.364;17.008;2022-07-23T11:43:44;33.90;;;31.00;;
67076;SDS011;53991;46.364;17.008;2022-07-23T11:46:54;33.95;;;30.58;;
67076;SDS011;53991;46.364;17.008;2022-07-23T11:50:01;33.55;;;30.85;;
67076;SDS011;53991;46.364;17.008;2022-07-23T11:53:04;35.38;;;31.92;;
67076;SDS011;53991;46.364;17.008;2022-07-23T11:56:07;29.70;;;27.35;;
67076;SDS011;53991;46.364;17.008;2022-07-23T11:59:11;26.02;;;23.90;;
67076;SDS011;53991;46.364;17.008;2022-07-23T12:02:14;26.58;;;24.45;;
67076;SDS011;53991;46.364;17.008;2022-07-23T12:05:17;29.80;;;26.67;;
67076;SDS011;53991;46.364;17.008;2022-07-23T12:08:21;29.33;;;26.80;;
67076;SDS011;53991;46.364;17.008;2022-07-23T12:11:23;28.35;;;25.42;;
67076;SDS011;53991;46.364;17.008;2022-07-23T12:14:25;25.98;;;23.90;;
67076;SDS011;53991;46.364;17.008;2022-07-23T12:17:29;28.65;;;26.15;;
67076;SDS011;53991;46.364;17.008;2022-07-23T12:20:35;25.65;;;23.25;;
67076;SDS011;53991;46.364;17.008;2022-07-23T12:23:48;21.08;;;19.27;;
67076;SDS011;53991;46.364;17.008;2022-07-23T12:27:09;17.83;;;16.45;;
67076;SDS011;53991;46.364;17.008;2022-07-23T12:33:35;18.00;;;16.52;;
67076;SDS011;53991;46.364;17.008;2022-07-23T12:36:39;16.83;;;15.32;;
67076;SDS011;53991;46.364;17.008;2022-07-23T12:39:42;16.65;;;15.15;;
67076;SDS011;53991;46.364;17.008;2022-07-23T12:42:44;17.90;;;16.00;;
67076;SDS011;53991;46.364;17.008;2022-07-23T12:45:52;18.00;;;16.25;;
67076;SDS011;53991;46.364;17.008;2022-07-23T12:48:56;15.98;;;14.57;;
67076;SDS011;53991;46.364;17.008;2022-07-23T12:51:58;16.50;;;15.15;;
67076;SDS011;53991;46.364;17.008;2022-07-23T12:55:00;16.35;;;15.02;;
67076;SDS011;53991;46.364;17.008;2022-07-23T12:58:06;15.75;;;14.30;;
67076;SDS011;53991;46.364;17.008;2022-07-23T13:04:24;16.05;;;14.73;;
67076;SDS011;53991;46.364;17.008;2022-07-23T13:07:27;14.63;;;13.52;;
67076;SDS011;53991;46.364;17.008;2022-07-23T13:10:29;16.30;;;14.95;;
67076;SDS011;53991;46.364;17.008;2022-07-23T13:13:31;16.08;;;14.80;;
67076;SDS011;53991;46.364;17.008;2022-07-23T13:16:36;17.63;;;15.75;;
67076;SDS011;53991;46.364;17.008;2022-07-23T13:19:38;18.10;;;16.33;;
67076;SDS011;53991;46.364;17.008;2022-07-23T13:22:41;17.60;;;15.40;;
67076;SDS011;53991;46.364;17.008;2022-07-23T13:25:44;18.13;;;16.40;;
67076;SDS011;53991;46.364;17.008;2022-07-23T13:28:46;18.52;;;16.65;;
67076;SDS011;53991;46.364;17.008;2022-07-23T13:31:49;18.42;;;16.80;;
67076;SDS011;53991;46.364;17.008;2022-07-23T13:34:51;18.40;;;16.58;;
67076;SDS011;53991;46.364;17.008;2022-07-23T13:37:53;19.83;;;18.13;;
67076;SDS011;53991;46.364;17.008;2022-07-23T13:40:55;19.50;;;17.45;;
67076;SDS011;53991;46.364;17.008;2022-07-23T13:43:59;18.40;;;16.80;;
67076;SDS011;53991;46.364;17.008;2022-07-23T13:47:03;18.55;;;16.70;;
67076;SDS011;53991;46.364;17.008;2022-07-23T13:50:05;18.42;;;16.67;;
67076;SDS011;53991;46.364;17.008;2022-07-23T13:53:08;19.20;;;17.33;;
67076;SDS011;53991;46.364;17.008;2022-07-23T13:56:15;19.20;;;17.13;;
67076;SDS011;53991;46.364;17.008;2022-07-23T13:59:17;43.22;;;19.48;;
67076;SDS011;53991;46.364;17.008;2022-07-23T14:02:19;20.38;;;18.30;;
67076;SDS011;53991;46.364;17.008;2022-07-23T14:05:26;19.42;;;17.65;;
67076;SDS011;53991;46.364;17.008;2022-07-23T14:08:28;17.85;;;16.55;;
67076;SDS011;53991;46.364;17.008;2022-07-23T14:11:30;19.05;;;17.45;;
67076;SDS011;53991;46.364;17.008;2022-07-23T14:14:32;19.75;;;17.95;;
67076;SDS011;53991;46.364;17.008;2022-07-23T14:17:38;20.30;;;18.40;;
67076;SDS011;53991;46.364;17.008;2022-07-23T14:20:43;21.23;;;18.70;;
67076;SDS011;53991;46.364;17.008;2022-07-23T14:23:45;19.77;;;18.13;;
67076;SDS011;53991;46.364;17.008;2022-07-23T14:26:48;19.45;;;17.70;;
67076;SDS011;53991;46.364;17.008;2022-07-23T14:29:50;18.73;;;16.85;;
67076;SDS011;53991;46.364;17.008;2022-07-23T14:32:52;20.88;;;19.00;;
67076;SDS011;53991;46.364;17.008;2022-07-23T14:35:54;18.80;;;17.17;;
67076;SDS011;53991;46.364;17.008;2022-07-23T14:38:57;18.88;;;17.35;;
67076;SDS011;53991;46.364;17.008;2022-07-23T14:42:01;19.00;;;17.38;;
67076;SDS011;53991;46.364;17.008;2022-07-23T14:45:04;18.25;;;16.65;;
67076;SDS011;53991;46.364;17.008;2022-07-23T14:48:11;16.35;;;15.02;;
67076;SDS011;53991;46.364;17.008;2022-07-23T14:51:13;17.70;;;15.88;;
67076;SDS011;53991;46.364;17.008;2022-07-23T14:54:15;25.45;;;15.77;;
67076;SDS011;53991;46.364;17.008;2022-07-23T14:57:18;16.35;;;14.57;;
67076;SDS011;53991;46.364;17.008;2022-07-23T15:00:27;15.48;;;14.23;;
67076;SDS011;53991;46.364;17.008;2022-07-23T15:03:30;17.10;;;15.68;;
67076;SDS011;53991;46.364;17.008;2022-07-23T15:06:43;16.67;;;15.25;;
67076;SDS011;53991;46.364;17.008;2022-07-23T15:09:45;17.33;;;15.68;;
67076;SDS011;53991;46.364;17.008;2022-07-23T15:12:49;16.85;;;15.35;;
67076;SDS011;53991;46.364;17.008;2022-07-23T15:15:51;19.17;;;15.40;;
67076;SDS011;53991;46.364;17.008;2022-07-23T15:18:56;15.63;;;14.40;;
67076;SDS011;53991;46.364;17.008;2022-07-23T15:21:58;16.85;;;15.32;;
67076;SDS011;53991;46.364;17.008;2022-07-23T15:25:02;17.20;;;15.50;;
67076;SDS011;53991;46.364;17.008;2022-07-23T15:28:05;16.85;;;15.55;;
67076;SDS011;53991;46.364;17.008;2022-07-23T15:31:09;18.25;;;16.60;;
67076;SDS011;53991;46.364;17.008;2022-07-23T15:34:11;21.70;;;16.88;;
67076;SDS011;53991;46.364;17.008;2022-07-23T15:37:13;17.98;;;16.48;;
67076;SDS011;53991;46.364;17.008;2022-07-23T15:40:15;17.85;;;16.20;;
67076;SDS011;53991;46.364;17.008;2022-07-23T15:43:19;17.67;;;16.33;;
67076;SDS011;53991;46.364;17.008;2022-07-23T15:46:22;17.92;;;16.30;;
67076;SDS011;53991;46.364;17.008;2022-07-23T15:49:27;21.02;;;18.70;;
67076;SDS011;53991;46.364;17.008;2022-07-23T15:52:31;18.77;;;17.08;;
67076;SDS011;53991;46.364;17.008;2022-07-23T15:55:34;19.27;;;17.58;;
67076;SDS011;53991;46.364;17.008;2022-07-23T15:58:37;17.08;;;11.98;;
67076;SDS011;53991;46.364;17.008;2022-07-23T16:01:39;21.27;;;11.82;;
67076;SDS011;53991;46.364;17.008;2022-07-23T16:04:42;26.80;;;12.52;;
67076;SDS011;53991;46.364;17.008;2022-07-23T16:07:44;16.83;;;10.40;;
67076;SDS011;53991;46.364;17.008;2022-07-23T16:13:47;10.88;;;8.25;;
67076;SDS011;53991;46.364;17.008;2022-07-23T16:19:51;9.50;;;8.68;;
67076;SDS011;53991;46.364;17.008;2022-07-23T16:25:55;10.07;;;9.02;;
67076;SDS011;53991;46.364;17.008;2022-07-23T16:31:59;8.93;;;8.02;;
67076;SDS011;53991;46.364;17.008;2022-07-23T16:35:01;10.45;;;8.82;;
67076;SDS011;53991;46.364;17.008;2022-07-23T16:38:14;10.20;;;7.75;;
67076;SDS011;53991;46.364;17.008;2022-07-23T16:41:16;16.35;;;7.55;;
67076;SDS011;53991;46.364;17.008;2022-07-23T16:50:22;8.25;;;6.95;;
67076;SDS011;53991;46.364;17.008;2022-07-23T16:53:24;9.77;;;7.43;;
67076;SDS011;53991;46.364;17.008;2022-07-23T16:59:28;7.03;;;6.40;;
67076;SDS011;53991;46.364;17.008;2022-07-23T17:02:30;6.90;;;6.40;;
67076;SDS011;53991;46.364;17.008;2022-07-23T17:05:32;7.10;;;6.50;;
67076;SDS011;53991;46.364;17.008;2022-07-23T17:08:34;8.80;;;6.93;;
67076;SDS011;53991;46.364;17.008;2022-07-23T17:11:36;8.27;;;6.70;;
67076;SDS011;53991;46.364;17.008;2022-07-23T17:14:38;7.53;;;6.82;;
67076;SDS011;53991;46.364;17.008;2022-07-23T17:20:42;8.65;;;7.32;;
67076;SDS011;53991;46.364;17.008;2022-07-23T17:23:44;8.65;;;6.07;;
67076;SDS011;53991;46.364;17.008;2022-07-23T17:26:46;8.90;;;6.78;;
67076;SDS011;53991;46.364;17.008;2022-07-23T17:29:50;7.45;;;6.70;;
67076;SDS011;53991;46.364;17.008;2022-07-23T17:32:52;10.63;;;6.65;;
67076;SDS011;53991;46.364;17.008;2022-07-23T17:35:53;9.13;;;6.95;;
67076;SDS011;53991;46.364;17.008;2022-07-23T17:38:55;7.53;;;6.68;;
67076;SDS011;53991;46.364;17.008;2022-07-23T17:42:01;7.82;;;6.55;;
67076;SDS011;53991;46.364;17.008;2022-07-23T17:45:03;7.28;;;6.65;;
67076;SDS011;53991;46.364;17.008;2022-07-23T17:48:07;7.03;;;6.40;;
67076;SDS011;53991;46.364;17.008;2022-07-23T17:51:10;7.32;;;6.72;;
67076;SDS011;53991;46.364;17.008;2022-07-23T17:57:13;10.97;;;7.53;;
67076;SDS011;53991;46.364;17.008;2022-07-23T18:00:16;6.68;;;6.10;;
67076;SDS011;53991;46.364;17.008;2022-07-23T18:03:19;14.32;;;7.13;;
67076;SDS011;53991;46.364;17.008;2022-07-23T18:09:24;11.90;;;7.13;;
67076;SDS011;53991;46.364;17.008;2022-07-23T18:12:26;11.77;;;7.45;;
67076;SDS011;53991;46.364;17.008;2022-07-23T18:15:28;7.53;;;6.93;;
67076;SDS011;53991;46.364;17.008;2022-07-23T18:18:30;7.22;;;6.07;;
67076;SDS011;53991;46.364;17.008;2022-07-23T18:21:32;6.88;;;6.28;;
67076;SDS011;53991;46.364;17.008;2022-07-23T18:27:36;7.67;;;7.07;;
67076;SDS011;53991;46.364;17.008;2022-07-23T18:30:39;8.52;;;6.80;;
67076;SDS011;53991;46.364;17.008;2022-07-23T18:33:41;15.27;;;7.90;;
67076;SDS011;53991;46.364;17.008;2022-07-23T18:36:43;11.93;;;7.93;;
67076;SDS011;53991;46.364;17.008;2022-07-23T18:39:46;7.35;;;6.68;;
67076;SDS011;53991;46.364;17.008;2022-07-23T18:42:48;6.90;;;6.30;;
67076;SDS011;53991;46.364;17.008;2022-07-23T18:45:51;8.95;;;8.20;;
67076;SDS011;53991;46.364;17.008;2022-07-23T18:48:53;13.00;;;7.03;;
67076;SDS011;53991;46.364;17.008;2022-07-23T18:51:55;6.93;;;6.40;;
67076;SDS011;53991;46.364;17.008;2022-07-23T18:54:57;13.25;;;7.50;;
67076;SDS011;53991;46.364;17.008;2022-07-23T18:57:59;9.73;;;7.72;;
67076;SDS011;53991;46.364;17.008;2022-07-23T19:01:01;8.40;;;7.57;;
67076;SDS011;53991;46.364;17.008;2022-07-23T19:07:05;8.20;;;7.40;;
67076;SDS011;53991;46.364;17.008;2022-07-23T19:10:07;7.63;;;7.03;;
67076;SDS011;53991;46.364;17.008;2022-07-23T19:16:11;7.93;;;7.33;;
67076;SDS011;53991;46.364;17.008;2022-07-23T19:19:13;8.48;;;7.68;;
67076;SDS011;53991;46.364;17.008;2022-07-23T19:22:16;8.55;;;7.85;;
67076;SDS011;53991;46.364;17.008;2022-07-23T19:25:18;8.25;;;7.57;;
67076;SDS011;53991;46.364;17.008;2022-07-23T19:28:20;9.05;;;8.07;;